createdAt,value
2019-04-01T00:02:02.901Z,7.60
2019-04-01T00:04:04.597Z,7.60
2019-04-01T00:06:06.877Z,7.60
2019-04-01T00:08:08.673Z,7.60
2019-04-01T00:10:10.578Z,7.50
2019-04-01T00:12:12.312Z,7.50
2019-04-01T00:14:14.120Z,7.50
2019-04-01T00:16:15.817Z,7.40
2019-04-01T00:18:17.543Z,7.40
2019-04-01T00:20:19.248Z,7.40
2019-04-01T00:22:20.949Z,7.50
2019-04-01T00:24:22.664Z,7.50
2019-04-01T00:26:24.437Z,7.40
2019-04-01T00:28:26.205Z,7.40
2019-04-01T00:30:27.936Z,7.40
2019-04-01T00:32:29.650Z,7.40
2019-04-01T00:34:31.366Z,7.40
2019-04-01T00:36:33.082Z,7.40
2019-04-01T00:38:34.788Z,7.40
2019-04-01T00:40:36.501Z,7.30
2019-04-01T00:43:06.849Z,7.30
2019-04-01T00:45:11.344Z,7.30
2019-04-01T00:47:13.050Z,7.30
2019-04-01T00:49:14.760Z,7.30
2019-04-01T00:51:16.770Z,7.20
2019-04-01T00:53:18.732Z,7.20
2019-04-01T00:55:20.450Z,7.20
2019-04-01T00:57:22.160Z,7.20
2019-04-01T00:59:23.866Z,7.20
2019-04-01T01:01:25.667Z,7.10
2019-04-01T01:03:27.393Z,7.10
2019-04-01T01:05:29.089Z,7.10
2019-04-01T01:07:30.892Z,7.10
2019-04-01T01:09:32.604Z,7.00
2019-04-01T01:11:34.321Z,7.00
2019-04-01T01:13:36.033Z,6.90
2019-04-01T01:15:37.746Z,6.90
2019-04-01T01:17:39.467Z,6.90
2019-04-01T01:19:41.172Z,6.90
2019-04-01T01:21:43.455Z,6.80
2019-04-01T01:23:45.269Z,6.80
2019-04-01T01:25:46.978Z,6.70
2019-04-01T01:27:48.672Z,6.70
2019-04-01T01:29:50.404Z,6.70
2019-04-01T01:31:52.201Z,6.60
2019-04-01T01:33:54.008Z,6.50
2019-04-01T01:35:55.739Z,6.40
2019-04-01T01:37:57.465Z,6.40
2019-04-01T01:39:59.162Z,6.40
2019-04-01T01:42:00.876Z,6.30
2019-04-01T01:44:02.685Z,6.20
2019-04-01T01:46:04.385Z,6.20
2019-04-01T01:48:06.093Z,6.20
2019-04-01T01:50:08.004Z,6.20
2019-04-01T01:52:10.048Z,6.20
2019-04-01T01:54:11.745Z,6.20
2019-04-01T01:56:13.440Z,6.10
2019-04-01T01:58:15.168Z,6.10
2019-04-01T02:00:18.237Z,6.20
2019-04-01T02:02:19.930Z,6.00
2019-04-01T02:04:21.673Z,6.00
2019-04-01T02:06:23.569Z,6.00
2019-04-01T02:08:25.271Z,5.90
2019-04-01T02:10:27.025Z,5.90
2019-04-01T02:12:28.716Z,5.80
2019-04-01T02:14:30.420Z,5.70
2019-04-01T02:16:32.476Z,5.70
2019-04-01T02:18:34.268Z,5.60
2019-04-01T02:20:36.065Z,5.50
2019-04-01T02:22:37.784Z,5.60
2019-04-01T02:24:39.488Z,5.50
2019-04-01T02:26:41.176Z,5.50
2019-04-01T02:28:42.885Z,5.50
2019-04-01T02:30:44.573Z,5.40
2019-04-01T02:32:46.277Z,5.40
2019-04-01T02:34:48.261Z,5.30
2019-04-01T02:36:49.946Z,5.30
2019-04-01T02:38:51.652Z,5.30
2019-04-01T02:40:53.445Z,5.30
2019-04-01T02:42:55.245Z,5.30
2019-04-01T02:44:56.957Z,5.30
2019-04-01T02:46:58.649Z,5.30
2019-04-01T02:49:00.336Z,5.10
2019-04-01T02:51:02.039Z,5.20
2019-04-01T02:53:03.838Z,5.20
2019-04-01T02:55:06.783Z,5.20
2019-04-01T02:57:09.082Z,5.20
2019-04-01T02:59:10.863Z,5.20
2019-04-01T03:01:12.624Z,5.10
2019-04-01T03:03:14.392Z,5.10
2019-04-01T03:05:16.102Z,5.20
2019-04-01T03:07:17.818Z,5.10
2019-04-01T03:09:19.521Z,5.20
2019-04-01T03:11:21.206Z,5.10
2019-04-01T03:13:22.898Z,5.00
2019-04-01T03:15:24.615Z,4.80
2019-04-01T03:17:26.336Z,4.70
2019-04-01T03:19:28.114Z,4.80
2019-04-01T03:21:29.855Z,4.80
2019-04-01T03:23:31.548Z,4.80
2019-04-01T03:25:33.553Z,4.70
2019-04-01T03:27:35.380Z,4.70
2019-04-01T03:29:37.466Z,4.60
2019-04-01T03:31:39.166Z,4.50
2019-04-01T03:33:40.902Z,4.50
2019-04-01T03:35:42.771Z,4.70
2019-04-01T03:37:44.565Z,5.00
2019-04-01T03:39:46.309Z,4.90
2019-04-01T03:41:47.997Z,4.70
2019-04-01T03:43:49.810Z,4.60
2019-04-01T03:45:51.528Z,4.60
2019-04-01T03:47:53.283Z,4.60
2019-04-01T03:49:55.231Z,4.60
2019-04-01T03:51:56.913Z,4.50
2019-04-01T03:53:58.627Z,4.60
2019-04-01T03:56:00.336Z,4.50
2019-04-01T03:58:02.029Z,4.40
2019-04-01T04:00:04.405Z,4.30
2019-04-01T04:02:06.188Z,4.20
2019-04-01T04:04:08.194Z,4.30
2019-04-01T04:06:10.089Z,4.30
2019-04-01T04:08:11.830Z,4.30
2019-04-01T04:10:13.625Z,4.30
2019-04-01T04:12:15.356Z,4.30
2019-04-01T04:14:17.075Z,4.30
2019-04-01T04:16:18.762Z,4.40
2019-04-01T04:18:20.572Z,4.40
2019-04-01T04:20:22.273Z,4.30
2019-04-01T04:22:23.992Z,4.10
2019-04-01T04:24:25.693Z,4.00
2019-04-01T04:26:27.505Z,4.00
2019-04-01T04:28:29.288Z,3.90
2019-04-01T04:30:31.013Z,4.00
2019-04-01T04:32:32.713Z,4.00
2019-04-01T04:34:34.589Z,4.00
2019-04-01T04:36:36.313Z,4.10
2019-04-01T04:38:38.104Z,4.00
2019-04-01T04:40:41.049Z,3.90
2019-04-01T04:42:43.013Z,4.00
2019-04-01T04:44:44.716Z,4.00
2019-04-01T04:46:46.417Z,4.10
2019-04-01T04:48:48.322Z,4.20
2019-04-01T04:50:50.026Z,4.00
2019-04-01T04:52:51.744Z,3.90
2019-04-01T04:54:53.461Z,3.90
2019-04-01T04:56:55.156Z,4.00
2019-04-01T04:58:56.864Z,4.10
2019-04-01T05:00:58.563Z,4.10
2019-04-01T05:03:00.614Z,4.10
2019-04-01T05:05:02.829Z,4.00
2019-04-01T05:07:04.646Z,4.00
2019-04-01T05:09:06.349Z,3.90
2019-04-01T05:11:08.076Z,3.90
2019-04-01T05:13:09.915Z,3.90
2019-04-01T05:15:11.812Z,3.80
2019-04-01T05:17:13.923Z,3.90
2019-04-01T05:19:15.630Z,3.80
2019-04-01T05:21:17.999Z,3.60
2019-04-01T05:23:20.418Z,3.60
2019-04-01T05:25:22.543Z,3.80
2019-04-01T05:27:25.185Z,3.60
2019-04-01T05:29:29.240Z,3.80
2019-04-01T05:31:32.973Z,3.70
2019-04-01T05:33:37.308Z,3.90
2019-04-01T05:35:39.013Z,4.00
2019-04-01T05:37:41.085Z,4.30
2019-04-01T05:39:43.981Z,4.30
2019-04-01T05:41:45.821Z,4.50
2019-04-01T05:43:48.008Z,4.60
2019-04-01T05:45:49.720Z,4.50
2019-04-01T05:47:52.337Z,4.50
2019-04-01T05:49:54.059Z,4.40
2019-04-01T05:51:59.590Z,4.40
2019-04-01T05:54:01.411Z,4.50
2019-04-01T05:56:04.002Z,4.70
2019-04-01T05:58:05.797Z,4.70
2019-04-01T06:00:09.031Z,4.70
2019-04-01T06:02:10.925Z,4.60
2019-04-01T06:04:13.349Z,4.50
2019-04-01T06:06:15.144Z,4.50
2019-04-01T06:08:17.066Z,4.70
2019-04-01T06:10:18.759Z,4.90
2019-04-01T06:12:23.960Z,5.10
2019-04-01T06:14:24.176Z,5.10
2019-04-01T06:16:26.078Z,5.20
2019-04-01T06:18:27.889Z,5.30
2019-04-01T06:20:29.699Z,5.40
2019-04-01T06:22:31.989Z,5.50
2019-04-01T06:24:33.801Z,5.60
2019-04-01T06:26:36.111Z,5.70
2019-04-01T06:28:37.900Z,6.00
2019-04-01T06:30:39.692Z,6.00
2019-04-01T06:32:41.754Z,5.80
2019-04-01T06:34:52.694Z,5.80
2019-04-01T06:36:47.385Z,5.80
2019-04-01T06:38:49.302Z,5.90
2019-04-01T06:40:51.100Z,5.80
2019-04-01T06:42:53.138Z,6.10
2019-04-01T06:44:55.092Z,6.00
2019-04-01T06:46:57.432Z,6.20
2019-04-01T06:48:59.253Z,6.20
2019-04-01T06:51:01.045Z,6.30
2019-04-01T06:53:02.834Z,6.30
2019-04-01T06:55:04.880Z,6.10
2019-04-01T06:57:06.822Z,6.20
2019-04-01T06:59:08.757Z,6.30
2019-04-01T07:01:10.560Z,6.60
2019-04-01T07:03:12.367Z,6.90
2019-04-01T07:05:14.164Z,6.70
2019-04-01T07:07:19.322Z,6.70
2019-04-01T07:09:20.139Z,6.80
2019-04-01T07:11:21.956Z,6.90
2019-04-01T07:13:24.073Z,6.90
2019-04-01T07:15:26.069Z,7.10
2019-04-01T07:17:28.368Z,7.10
2019-04-01T07:19:30.352Z,6.90
2019-04-01T07:21:32.151Z,7.00
2019-04-01T07:23:33.958Z,7.00
2019-04-01T07:25:35.653Z,6.80
2019-04-01T07:27:37.597Z,7.00
2019-04-01T07:29:39.395Z,7.20
2019-04-01T07:31:41.103Z,7.40
2019-04-01T07:33:43.024Z,7.30
2019-04-01T07:35:46.698Z,7.50
2019-04-01T07:37:48.736Z,7.40
2019-04-01T07:39:50.757Z,7.50
2019-04-01T07:41:52.484Z,7.60
2019-04-01T07:43:54.293Z,7.90
2019-04-01T07:45:56.092Z,7.90
2019-04-01T07:47:57.796Z,7.80
2019-04-01T07:49:59.618Z,8.00
2019-04-01T07:52:01.609Z,7.70
2019-04-01T07:54:03.529Z,7.70
2019-04-01T07:56:05.473Z,8.00
2019-04-01T07:58:07.617Z,8.00
2019-04-01T08:00:09.525Z,8.20
2019-04-01T08:02:11.352Z,8.40
2019-04-01T08:04:13.162Z,8.30
2019-04-01T08:06:15.336Z,8.30
2019-04-01T08:08:17.250Z,8.50
2019-04-01T08:10:19.417Z,8.40
2019-04-01T08:12:21.208Z,8.70
2019-04-01T08:14:23.421Z,8.70
2019-04-01T08:16:25.233Z,9.10
2019-04-01T08:18:26.936Z,9.10
2019-04-01T08:20:28.737Z,8.80
2019-04-01T08:22:30.667Z,8.90
2019-04-01T08:24:32.560Z,8.90
2019-04-01T08:26:34.556Z,9.20
2019-04-01T08:28:36.661Z,9.10
2019-04-01T08:30:38.457Z,8.90
2019-04-01T08:32:40.411Z,8.90
2019-04-01T08:34:42.191Z,9.00
2019-04-01T08:36:44.046Z,9.00
2019-04-01T08:38:45.952Z,9.20
2019-04-01T08:40:47.681Z,9.40
2019-04-01T08:42:49.971Z,9.50
2019-04-01T08:44:51.782Z,9.70
2019-04-01T08:46:54.516Z,9.80
2019-04-01T08:48:56.216Z,10.00
2019-04-01T08:50:58.103Z,9.60
2019-04-01T08:52:59.913Z,9.60
2019-04-01T08:55:02.299Z,9.70
2019-04-01T08:57:04.092Z,9.50
2019-04-01T08:59:05.917Z,9.30
2019-04-01T09:01:07.616Z,9.40
2019-04-01T09:03:09.317Z,9.50
2019-04-01T09:05:11.228Z,9.70
2019-04-01T09:07:13.026Z,9.80
2019-04-01T09:09:14.813Z,9.50
2019-04-01T09:11:17.342Z,9.70
2019-04-01T09:13:19.642Z,9.60
2019-04-01T09:15:21.506Z,9.70
2019-04-01T09:17:23.431Z,10.00
2019-04-01T09:19:25.133Z,10.00
2019-04-01T09:21:26.921Z,10.30
2019-04-01T09:23:28.733Z,10.70
2019-04-01T09:25:30.431Z,10.80
2019-04-01T09:27:32.225Z,10.50
2019-04-01T09:29:33.939Z,10.50
2019-04-01T09:31:35.640Z,10.60
2019-04-01T09:33:37.430Z,10.50
2019-04-01T09:35:40.876Z,10.40
2019-04-01T09:37:42.825Z,10.30
2019-04-01T09:39:44.522Z,10.50
2019-04-01T09:41:46.517Z,10.40
2019-04-01T09:43:48.313Z,10.30
2019-04-01T09:45:50.115Z,10.40
2019-04-01T09:47:51.823Z,10.80
2019-04-01T09:49:53.541Z,11.00
2019-04-01T09:51:55.522Z,11.10
2019-04-01T09:53:57.217Z,11.30
2019-04-01T09:55:58.977Z,11.20
2019-04-01T09:58:00.991Z,11.10
2019-04-01T10:00:04.057Z,11.30
2019-04-01T10:02:06.218Z,11.50
2019-04-01T10:04:08.385Z,11.60
2019-04-01T10:06:10.556Z,11.80
2019-04-01T10:08:12.465Z,11.90
2019-04-01T10:10:14.396Z,12.10
2019-04-01T10:12:16.309Z,12.10
2019-04-01T10:14:18.008Z,11.40
2019-04-01T10:16:19.834Z,11.70
2019-04-01T10:18:21.525Z,11.60
2019-04-01T10:20:23.220Z,11.40
2019-04-01T10:22:25.181Z,11.50
2019-04-01T10:24:26.873Z,11.80
2019-04-01T10:26:28.568Z,12.20
2019-04-01T10:28:32.221Z,12.40
2019-04-01T10:30:34.115Z,12.50
2019-04-01T10:32:35.802Z,12.50
2019-04-01T10:34:37.502Z,12.60
2019-04-01T10:36:39.442Z,12.90
2019-04-01T10:38:41.233Z,13.20
2019-04-01T10:40:42.937Z,12.50
2019-04-01T10:42:44.763Z,12.40
2019-04-01T10:44:46.666Z,12.70
2019-04-01T10:46:48.411Z,12.60
2019-04-01T10:48:50.275Z,12.30
2019-04-01T10:50:52.056Z,12.50
2019-04-01T10:52:53.806Z,12.80
2019-04-01T10:54:55.643Z,12.70
2019-04-01T10:56:57.579Z,12.90
2019-04-01T10:58:59.341Z,12.90
2019-04-01T11:01:01.061Z,13.30
2019-04-01T11:03:06.006Z,13.20
2019-04-01T11:05:07.329Z,13.10
2019-04-01T11:07:09.139Z,13.50
2019-04-01T11:09:11.051Z,13.20
2019-04-01T11:11:12.917Z,12.80
2019-04-01T11:13:14.609Z,13.00
2019-04-01T11:15:17.503Z,13.90
2019-04-01T11:17:19.325Z,14.00
2019-04-01T11:19:21.126Z,13.30
2019-04-01T11:21:22.936Z,12.90
2019-04-01T11:23:24.646Z,13.00
2019-04-01T11:25:26.345Z,13.20
2019-04-01T11:27:28.309Z,13.90
2019-04-01T11:29:30.001Z,14.10
2019-04-01T11:31:31.686Z,14.20
2019-04-01T11:33:33.477Z,14.80
2019-04-01T11:35:35.252Z,14.10
2019-04-01T11:37:37.057Z,13.80
2019-04-01T11:39:38.783Z,13.70
2019-04-01T11:41:40.673Z,14.40
2019-04-01T11:43:42.388Z,14.60
2019-04-01T11:45:44.414Z,15.20
2019-04-01T11:47:46.340Z,15.40
2019-04-01T11:49:48.218Z,15.80
2019-04-01T11:51:50.032Z,14.50
2019-04-01T11:53:52.012Z,14.30
2019-04-01T11:55:53.697Z,14.80
2019-04-01T11:57:55.434Z,15.00
2019-04-01T11:59:57.318Z,15.40
2019-04-01T12:01:59.157Z,15.30
2019-04-01T12:04:00.963Z,14.60
2019-04-01T12:06:02.876Z,14.60
2019-04-01T12:08:04.584Z,14.90
2019-04-01T12:10:07.708Z,15.40
2019-04-01T12:12:22.927Z,16.40
2019-04-01T12:14:13.476Z,16.90
2019-04-01T12:16:15.257Z,16.60
2019-04-01T12:18:16.938Z,17.00
2019-04-01T12:20:18.755Z,16.80
2019-04-01T12:22:20.449Z,17.40
2019-04-01T12:24:22.132Z,17.90
2019-04-01T12:26:23.953Z,17.00
2019-04-01T12:28:25.850Z,16.50
2019-04-01T12:30:27.634Z,16.70
2019-04-01T12:32:29.433Z,16.40
2019-04-01T12:34:31.325Z,16.30
2019-04-01T12:36:33.533Z,15.70
2019-04-01T12:38:35.230Z,15.90
2019-04-01T12:40:36.920Z,16.40
2019-04-01T12:42:38.732Z,16.10
2019-04-01T12:44:41.372Z,17.20
2019-04-01T12:46:43.333Z,17.50
2019-04-01T12:48:45.031Z,17.10
2019-04-01T12:50:46.714Z,17.90
2019-04-01T12:52:48.430Z,17.40
2019-04-01T12:54:50.175Z,18.30
2019-04-01T12:56:51.926Z,18.30
2019-04-01T12:58:54.684Z,18.50
2019-04-01T13:00:56.689Z,18.30
2019-04-01T13:02:58.672Z,18.80
2019-04-01T13:05:00.370Z,18.20
2019-04-01T13:07:04.889Z,18.40
2019-04-01T13:09:06.469Z,18.00
2019-04-01T13:11:08.162Z,18.20
2019-04-01T13:13:12.864Z,18.80
2019-04-01T13:15:14.090Z,18.40
2019-04-01T13:17:15.870Z,17.80
2019-04-01T13:19:17.564Z,17.80
2019-04-01T13:21:19.290Z,17.30
2019-04-01T13:23:21.072Z,17.00
2019-04-01T13:25:22.764Z,17.20
2019-04-01T13:27:24.477Z,18.00
2019-04-01T13:29:26.180Z,17.40
2019-04-01T13:31:27.865Z,16.30
2019-04-01T13:33:29.646Z,16.90
2019-04-01T13:35:31.590Z,17.20
2019-04-01T13:37:33.305Z,19.00
2019-04-01T13:39:35.136Z,19.70
2019-04-01T13:41:42.595Z,18.60
2019-04-01T13:43:40.846Z,18.40
2019-04-01T13:45:42.536Z,18.90
2019-04-01T13:47:44.274Z,19.10
2019-04-01T13:49:45.980Z,18.70
2019-04-01T13:51:47.704Z,19.00
2019-04-01T13:53:49.470Z,19.00
2019-04-01T13:55:51.437Z,17.70
2019-04-01T13:57:53.171Z,17.40
2019-04-01T13:59:54.860Z,18.50
2019-04-01T14:01:57.126Z,17.90
2019-04-01T14:03:59.044Z,18.30
2019-04-01T14:06:01.552Z,19.40
2019-04-01T14:08:05.851Z,18.40
2019-04-01T14:10:07.289Z,17.90
2019-04-01T14:12:08.974Z,17.80
2019-04-01T14:14:10.911Z,17.40
2019-04-01T14:16:13.034Z,18.10
2019-04-01T14:18:15.145Z,18.40
2019-04-01T14:20:16.953Z,17.70
2019-04-01T14:22:20.162Z,18.30
2019-04-01T14:24:22.558Z,18.70
2019-04-01T14:26:24.995Z,18.20
2019-04-01T14:28:26.672Z,17.60
2019-04-01T14:30:28.470Z,17.30
2019-04-01T14:32:30.162Z,18.50
2019-04-01T14:34:32.149Z,19.30
2019-04-01T14:36:37.908Z,18.60
2019-04-01T14:38:40.625Z,18.20
2019-04-01T14:40:42.461Z,18.10
2019-04-01T14:42:46.508Z,18.90
2019-04-01T14:44:58.416Z,19.20
2019-04-01T14:47:00.386Z,18.90
2019-04-01T14:49:03.225Z,18.30
2019-04-01T14:51:06.617Z,18.20
2019-04-01T14:53:09.944Z,18.80
2019-04-01T14:55:12.000Z,19.10
2019-04-01T14:57:13.850Z,18.90
2019-04-01T14:59:15.525Z,18.30
2019-04-01T15:01:17.216Z,18.30
2019-04-01T15:03:19.032Z,19.30
2019-04-01T15:05:21.313Z,18.80
2019-04-01T15:07:23.006Z,20.20
2019-04-01T15:09:24.765Z,18.70
2019-04-01T15:11:26.466Z,18.90
2019-04-01T15:13:28.162Z,19.20
2019-04-01T15:15:31.441Z,18.20
2019-04-01T15:17:36.668Z,18.60
2019-04-01T15:19:36.777Z,18.80
2019-04-01T15:21:38.685Z,20.00
2019-04-01T15:23:40.477Z,20.20
2019-04-01T15:25:42.168Z,19.00
2019-04-01T15:27:43.877Z,18.20
2019-04-01T15:29:45.577Z,17.70
2019-04-01T15:31:47.289Z,17.90
2019-04-01T15:33:49.417Z,19.10
2019-04-01T15:35:51.992Z,19.10
2019-04-01T15:37:53.680Z,17.20
2019-04-01T15:39:55.494Z,16.70
2019-04-01T15:41:57.189Z,17.00
2019-04-01T15:43:58.873Z,16.50
2019-04-01T15:46:03.942Z,15.50
2019-04-01T15:48:04.304Z,15.50
2019-04-01T15:50:06.483Z,14.80
2019-04-01T15:52:08.305Z,14.80
2019-04-01T15:54:10.005Z,14.30
2019-04-01T15:56:11.712Z,14.00
2019-04-01T15:58:13.421Z,13.20
2019-04-01T16:00:19.247Z,12.70
2019-04-01T16:02:19.450Z,13.10
2019-04-01T16:04:21.245Z,13.00
2019-04-01T16:06:23.074Z,12.80
2019-04-01T16:08:25.249Z,12.80
2019-04-01T16:10:29.291Z,12.90
2019-04-01T16:12:30.874Z,12.70
2019-04-01T16:14:32.559Z,12.90
2019-04-01T16:16:34.299Z,12.90
2019-04-01T16:18:37.052Z,12.70
2019-04-01T16:20:38.759Z,12.60
2019-04-01T16:22:43.566Z,12.50
2019-04-01T16:24:44.991Z,12.10
2019-04-01T16:26:47.126Z,11.90
2019-04-01T16:28:49.187Z,11.90
2019-04-01T16:30:51.056Z,11.90
2019-04-01T16:32:52.874Z,12.00
2019-04-01T16:34:54.564Z,12.00
2019-04-01T16:36:56.262Z,11.70
2019-04-01T16:38:58.097Z,11.70
2019-04-01T16:40:59.797Z,11.70
2019-04-01T16:43:01.493Z,11.80
2019-04-01T16:45:05.921Z,11.70
2019-04-01T16:47:07.714Z,11.60
2019-04-01T16:49:09.569Z,11.60
2019-04-01T16:51:11.299Z,11.80
2019-04-01T16:53:12.996Z,11.70
2019-04-01T16:55:18.030Z,11.60
2019-04-01T16:57:18.748Z,11.60
2019-04-01T16:59:20.438Z,11.60
2019-04-01T17:01:23.194Z,11.60
2019-04-01T17:03:25.236Z,11.40
2019-04-01T17:05:31.818Z,11.30
2019-04-01T17:07:33.715Z,11.10
2019-04-01T17:09:36.009Z,11.00
2019-04-01T17:11:37.808Z,11.10
2019-04-01T17:13:39.810Z,11.10
2019-04-01T17:15:41.698Z,11.10
2019-04-01T17:17:43.599Z,11.00
2019-04-01T17:19:45.309Z,10.90
2019-04-01T17:21:47.108Z,11.00
2019-04-01T17:23:48.831Z,11.10
2019-04-01T17:25:50.969Z,11.00
2019-04-01T17:27:52.660Z,10.90
2019-04-01T17:29:54.582Z,11.00
2019-04-01T17:31:56.293Z,10.90
2019-04-01T17:33:58.245Z,10.90
2019-04-01T17:36:00.040Z,10.90
2019-04-01T17:38:01.854Z,10.80
2019-04-01T17:40:04.897Z,10.80
2019-04-01T17:42:06.904Z,10.80
2019-04-01T17:44:08.765Z,10.80
2019-04-01T17:46:10.694Z,10.70
2019-04-01T17:48:12.374Z,10.60
2019-04-01T17:50:14.174Z,10.60
2019-04-01T17:52:16.236Z,10.50
2019-04-01T17:54:19.007Z,10.50
2019-04-01T17:56:21.053Z,10.40
2019-04-01T17:58:22.742Z,10.50
2019-04-01T18:00:26.162Z,10.40
2019-04-01T18:02:29.473Z,10.30
2019-04-01T18:04:31.434Z,10.20
2019-04-01T18:06:33.350Z,10.10
2019-04-01T18:08:35.041Z,10.20
2019-04-01T18:10:36.761Z,10.20
2019-04-01T18:12:38.542Z,10.20
2019-04-01T18:14:40.241Z,10.30
2019-04-01T18:16:43.073Z,10.10
2019-04-01T18:18:45.245Z,9.90
2019-04-01T18:20:46.948Z,10.00
2019-04-01T18:22:48.841Z,10.00
2019-04-01T18:24:51.179Z,9.90
2019-04-01T18:26:53.786Z,9.90
2019-04-01T18:28:55.873Z,9.80
2019-04-01T18:30:57.565Z,9.80
2019-04-01T18:33:00.011Z,9.70
2019-04-01T18:35:04.035Z,9.70
2019-04-01T18:37:06.274Z,9.70
2019-04-01T18:39:08.637Z,9.70
2019-04-01T18:41:10.435Z,9.70
2019-04-01T18:43:12.244Z,9.60
2019-04-01T18:45:14.152Z,9.60
2019-04-01T18:47:15.868Z,9.60
2019-04-01T18:49:17.675Z,9.60
2019-04-01T18:51:20.545Z,9.50
2019-04-01T18:53:22.359Z,9.40
2019-04-01T18:55:24.088Z,9.40
2019-04-01T18:57:27.192Z,9.40
2019-04-01T18:59:29.193Z,9.40
2019-04-01T19:01:30.882Z,9.30
2019-04-01T19:03:32.686Z,9.30
2019-04-01T19:05:34.391Z,9.20
2019-04-01T19:07:36.097Z,9.20
2019-04-01T19:09:38.729Z,9.10
2019-04-01T19:11:43.328Z,9.10
2019-04-01T19:13:44.146Z,9.10
2019-04-01T19:15:46.105Z,9.10
2019-04-01T19:17:48.790Z,9.00
2019-04-01T19:19:50.578Z,9.10
2019-04-01T19:21:52.290Z,9.00
2019-04-01T19:23:53.998Z,8.90
2019-04-01T19:25:55.688Z,8.90
2019-04-01T19:27:57.587Z,8.80
2019-04-01T19:29:59.281Z,8.80
2019-04-01T19:32:00.977Z,8.90
2019-04-01T19:34:03.057Z,8.90
2019-04-01T19:36:04.749Z,8.90
2019-04-01T19:38:07.363Z,8.80
2019-04-01T19:40:11.457Z,8.80
2019-04-01T19:42:13.283Z,8.70
2019-04-01T19:44:14.974Z,8.60
2019-04-01T19:46:16.726Z,8.50
2019-04-01T19:48:18.450Z,8.60
2019-04-01T19:50:20.559Z,8.60
2019-04-01T19:52:22.259Z,8.50
2019-04-01T19:54:31.118Z,8.40
2019-04-01T19:56:27.556Z,8.20
2019-04-01T19:58:29.247Z,8.20
2019-04-01T20:00:31.122Z,8.10
2019-04-01T20:02:34.257Z,8.20
2019-04-01T20:04:36.250Z,8.20
2019-04-01T20:06:40.657Z,8.20
2019-04-01T20:08:41.852Z,8.30
2019-04-01T20:10:43.547Z,8.20
2019-04-01T20:12:45.369Z,8.20
2019-04-01T20:14:47.165Z,8.20
2019-04-01T20:16:48.918Z,8.10
2019-04-01T20:18:50.653Z,8.20
2019-04-01T20:20:52.353Z,8.20
2019-04-01T20:22:54.499Z,8.10
2019-04-01T20:24:56.313Z,8.10
2019-04-01T20:26:58.076Z,8.00
2019-04-01T20:29:00.152Z,8.10
2019-04-01T20:31:01.845Z,7.90
2019-04-01T20:33:16.558Z,7.90
2019-04-01T20:35:07.655Z,7.90
2019-04-01T20:37:09.388Z,7.90
2019-04-01T20:39:11.408Z,7.80
2019-04-01T20:41:13.120Z,7.80
2019-04-01T20:43:15.356Z,7.80
2019-04-01T20:45:17.519Z,7.90
2019-04-01T20:47:19.277Z,7.80
2019-04-01T20:49:20.993Z,7.70
2019-04-01T20:51:22.728Z,7.70
2019-04-01T20:53:24.420Z,7.80
2019-04-01T20:55:26.219Z,7.80
2019-04-01T20:57:28.349Z,7.70
2019-04-01T20:59:30.042Z,7.80
2019-04-01T21:01:31.748Z,7.80
2019-04-01T21:03:33.569Z,7.80
2019-04-01T21:05:35.268Z,7.80
2019-04-01T21:07:36.974Z,7.80
2019-04-01T21:09:39.109Z,7.80
2019-04-01T21:11:41.027Z,7.80
2019-04-01T21:13:43.394Z,7.80
2019-04-01T21:15:45.106Z,7.70
2019-04-01T21:17:46.906Z,7.80
2019-04-01T21:19:48.608Z,7.80
2019-04-01T21:21:50.311Z,7.80
2019-04-01T21:23:52.289Z,7.70
2019-04-01T21:25:54.081Z,7.80
2019-04-01T21:27:55.819Z,7.80
2019-04-01T21:29:57.517Z,7.70
2019-04-01T21:31:59.436Z,7.70
2019-04-01T21:34:01.229Z,7.70
2019-04-01T21:36:03.246Z,7.80
2019-04-01T21:38:05.589Z,7.60
2019-04-01T21:40:07.801Z,7.60
2019-04-01T21:42:09.597Z,7.70
2019-04-01T21:44:11.718Z,7.70
2019-04-01T21:46:14.177Z,7.60
2019-04-01T21:48:16.454Z,7.70
2019-04-01T21:50:18.361Z,7.60
2019-04-01T21:52:20.155Z,7.60
2019-04-01T21:54:21.857Z,7.60
2019-04-01T21:56:23.723Z,7.60
2019-04-01T21:58:25.437Z,7.50
2019-04-01T22:00:45.714Z,7.50
2019-04-01T22:02:47.445Z,7.50
2019-04-01T22:04:49.146Z,7.50
2019-04-01T22:06:50.969Z,7.50
2019-04-01T22:08:52.756Z,7.50
2019-04-01T22:10:54.553Z,7.30
2019-04-01T22:12:56.802Z,7.30
2019-04-01T22:14:58.740Z,7.40
2019-04-01T22:17:00.460Z,7.50
2019-04-01T22:19:02.178Z,7.40
2019-04-01T22:21:03.872Z,7.30
2019-04-01T22:23:06.273Z,7.30
2019-04-01T22:25:08.587Z,7.30
2019-04-01T22:27:10.278Z,7.10
2019-04-01T22:29:12.109Z,7.10
2019-04-01T22:31:15.180Z,7.30
2019-04-01T22:33:17.092Z,7.30
2019-04-01T22:35:18.921Z,7.20
2019-04-01T22:37:27.091Z,7.20
2019-04-01T22:39:27.177Z,7.20
2019-04-01T22:41:29.197Z,7.20
2019-04-01T22:43:31.024Z,7.20
2019-04-01T22:45:32.747Z,7.20
2019-04-01T22:47:34.649Z,7.20
2019-04-01T22:49:36.454Z,7.20
2019-04-01T22:51:38.180Z,7.20
2019-04-01T22:53:39.876Z,7.10
2019-04-01T22:55:41.589Z,7.10
2019-04-01T22:57:43.321Z,7.00
2019-04-01T22:59:45.014Z,7.00
2019-04-01T23:01:46.721Z,7.00
2019-04-01T23:03:48.449Z,7.00
2019-04-01T23:05:50.150Z,7.10
2019-04-01T23:07:51.854Z,7.00
2019-04-01T23:09:53.550Z,6.90
2019-04-01T23:11:55.252Z,6.90
2019-04-01T23:13:57.065Z,7.00
2019-04-01T23:16:00.325Z,6.90
2019-04-01T23:18:02.304Z,6.90
2019-04-01T23:20:04.573Z,6.90
2019-04-01T23:22:06.377Z,6.90
2019-04-01T23:24:08.090Z,7.00
2019-04-01T23:26:09.788Z,7.10
2019-04-01T23:28:11.510Z,7.00
2019-04-01T23:30:13.432Z,7.00
2019-04-01T23:32:16.256Z,7.00
2019-04-01T23:34:18.431Z,7.00
2019-04-01T23:36:20.133Z,6.90
2019-04-01T23:38:21.961Z,6.90
2019-04-01T23:40:23.657Z,7.00
2019-04-01T23:42:25.651Z,7.00
2019-04-01T23:44:27.376Z,7.00
2019-04-01T23:46:29.073Z,6.90
2019-04-01T23:48:30.781Z,6.90
2019-04-01T23:50:32.793Z,6.90
2019-04-01T23:52:34.500Z,6.80
2019-04-01T23:54:36.196Z,6.90
2019-04-01T23:56:37.904Z,6.90
2019-04-01T23:58:39.709Z,6.90
